Thursday, July 19, 2018, 1:34 AM EDT
Back to Local

KDUJ, Du Bois-jefferson County

Location: Reynoldsville, PA, United States Lat: 41.183
Local Time: 1:34 AM EDT ( 5:34 GMT) Lon: -78.883
Time Zone: US/Eastern Elev: 1820 ft

Show me the last for .
Show Coded

Time T Td Feel RH Dir Speed Gust Alt SLP Vis Weather Sky Remarks
2018-07-19 00:53 59 53 - 80 60° 3 - 30.10 30.07 10 CLR 24-hr Min Temp (1am): 54.0°F
24-hr Max Temp (1am): 75.9°F
2018-07-18 23:53 62 54 - 74 350° 6 - 30.10 30.07 10 CLR None
2018-07-18 22:53 64 54 - 69 10° 6 - 30.08 30.05 10 CLR None
2018-07-18 21:53 66 54 - 65 350° 8 - 30.06 30.04 10 CLR None
2018-07-18 20:53 68 54 - 60 330° 5 - 30.05 30.03 10 CLR None
2018-07-18 19:53 72 54 76 53 330° 3 - 30.04 30.01 10 CLR 6-hr Min Temp (8pm): 72.0°F
6-hr Max Temp (8pm): 75.9°F
2018-07-18 18:53 75 53 77 46 340° 8 - 30.04 30.01 10 CLR None
2018-07-18 17:53 75 52 77 44 310° 6 - 30.04 30.01 10 BKN055 BKN070 None
2018-07-18 16:53 74 53 77 48 20° 6 - 30.04 30.01 10 CLR None
2018-07-18 15:53 75 54 77 47 320° 7 - 30.05 30.02 10 FEW050 None
2018-07-18 14:53 74 55 77 51 - - - 30.06 30.03 10 FEW046 SCT070 None
2018-07-18 12:53 72 57 76 59 330° 5 - 30.08 30.05 10 None
2018-07-18 11:53 70 56 - 61 320° 5 - 30.08 30.05 10 SCT033 SCT041 BKN055 None
2018-07-18 10:53 68 56 - 65 360° 9 - 30.08 30.05 10 FEW027 None
2018-07-18 09:53 66 58 - 75 320° 6 - 30.07 30.05 10 CLR None
2018-07-18 08:53 64 56 - 74 10° 9 - 30.07 30.04 10 CLR None
2018-07-18 07:53 61 55 - 80 350° 6 - 30.06 30.03 10 CLR 24-hr Precip Total (8am): 0.22"
6-hr Min Temp (8am): 54.0°F
6-hr Max Temp (8am): 61.0°F
2018-07-18 06:53 56 54 - 93 330° 5 - 30.04 30.02 10 CLR None
2018-07-18 05:53 54 53 - 96 - Calm - 30.04 30.01 10 CLR None
2018-07-18 04:53 56 53 - 90 300° 5 - 30.03 29.99 10 CLR None
2018-07-18 03:53 58 54 - 86 340° 7 - 30.01 29.97 10 CLR None
2018-07-18 02:53 58 53 - 83 310° 6 - 30.01 29.98 10 CLR None
2018-07-18 01:53 59 53 - 80 300° 5 - 30.00 29.97 10 CLR 6-hr Min Temp (2am): 59.0°F
6-hr Max Temp (2am): 69.1°F

Support USWX by starting your Amazon purchase here.